Terminal Aerodrome Forecast
Issued by NWS Twin Cities, MN

Home | Current Version | Previous Version | Graphics & Text | Print | Product List | Glossary On
Versions: 1 2 3 4 5 6 7 8 9 10 11 12 13 14 15 16 17 18
000
FTUS43 KMPX 211100
TAFSTC
TAF
KSTC 211140Z 2112/2212 15007KT P6SM OVC035
     FM211500 16011KT P6SM SCT040 SCT350
     FM220200 15007KT P6SM VCSH SCT050 BKN150 PROB30 2203/2206
      27025G35KT 2SM TSRA BKN040CB OVC120
     FM220600 14006KT 6SM HZ SCT040 BKN120
     FM220800 25004KT 4SM BR FEW008 BKN080=

USA.gov is the U.S. government's official web portal to all federal, state and local government web resources and services.